sensor_id;sensor_type;location;lat;lon;timestamp;temperature;humidity
23100;DHT22;53791;50.696;4.396;2023-07-20T00:00:17;15.90;99.90
23100;DHT22;53791;50.696;4.396;2023-07-20T00:02:44;15.80;99.90
23100;DHT22;53791;50.696;4.396;2023-07-20T00:05:12;15.80;99.90
23100;DHT22;53791;50.696;4.396;2023-07-20T00:07:39;15.80;99.90
23100;DHT22;53791;50.696;4.396;2023-07-20T00:10:07;15.80;99.90
23100;DHT22;53791;50.696;4.396;2023-07-20T00:12:35;15.80;99.90
23100;DHT22;53791;50.696;4.396;2023-07-20T00:15:03;15.80;99.90
23100;DHT22;53791;50.696;4.396;2023-07-20T00:17:30;15.80;99.90
23100;DHT22;53791;50.696;4.396;2023-07-20T00:19:58;15.80;99.90
23100;DHT22;53791;50.696;4.396;2023-07-20T00:22:25;15.80;99.90
23100;DHT22;53791;50.696;4.396;2023-07-20T00:24:53;15.80;99.90
23100;DHT22;53791;50.696;4.396;2023-07-20T00:27:20;15.80;99.90
23100;DHT22;53791;50.696;4.396;2023-07-20T00:29:48;15.90;99.90
23100;DHT22;53791;50.696;4.396;2023-07-20T00:32:15;16.00;99.90
23100;DHT22;53791;50.696;4.396;2023-07-20T00:34:43;16.00;99.90
23100;DHT22;53791;50.696;4.396;2023-07-20T00:37:10;16.00;99.90
23100;DHT22;53791;50.696;4.396;2023-07-20T00:39:38;16.00;99.90
23100;DHT22;53791;50.696;4.396;2023-07-20T00:42:06;16.00;99.90
23100;DHT22;53791;50.696;4.396;2023-07-20T00:44:34;16.10;99.90
23100;DHT22;53791;50.696;4.396;2023-07-20T00:47:01;16.10;99.90
23100;DHT22;53791;50.696;4.396;2023-07-20T00:49:29;16.10;99.90
23100;DHT22;53791;50.696;4.396;2023-07-20T00:51:56;16.10;99.90
23100;DHT22;53791;50.696;4.396;2023-07-20T00:54:24;16.10;99.90
23100;DHT22;53791;50.696;4.396;2023-07-20T00:56:53;16.10;99.90
23100;DHT22;53791;50.696;4.396;2023-07-20T00:59:22;16.00;99.90
23100;DHT22;53791;50.696;4.396;2023-07-20T01:01:49;16.00;99.90
23100;DHT22;53791;50.696;4.396;2023-07-20T01:04:17;16.00;99.90
23100;DHT22;53791;50.696;4.396;2023-07-20T01:06:52;15.90;99.90
23100;DHT22;53791;50.696;4.396;2023-07-20T01:09:39;15.90;99.90
23100;DHT22;53791;50.696;4.396;2023-07-20T01:12:18;16.00;99.90
23100;DHT22;53791;50.696;4.396;2023-07-20T01:14:42;16.00;99.90
23100;DHT22;53791;50.696;4.396;2023-07-20T01:17:09;16.00;99.90
23100;DHT22;53791;50.696;4.396;2023-07-20T01:19:38;16.00;99.90
23100;DHT22;53791;50.696;4.396;2023-07-20T01:22:37;16.00;99.90
23100;DHT22;53791;50.696;4.396;2023-07-20T01:33:17;15.90;99.90
23100;DHT22;53791;50.696;4.396;2023-07-20T01:35:50;15.90;99.90
23100;DHT22;53791;50.696;4.396;2023-07-20T01:38:18;15.80;99.90
23100;DHT22;53791;50.696;4.396;2023-07-20T01:40:46;15.90;99.90
23100;DHT22;53791;50.696;4.396;2023-07-20T01:43:13;15.90;99.90
23100;DHT22;53791;50.696;4.396;2023-07-20T01:45:41;16.00;99.90
23100;DHT22;53791;50.696;4.396;2023-07-20T01:48:09;15.90;99.90
23100;DHT22;53791;50.696;4.396;2023-07-20T01:50:36;15.80;99.90
23100;DHT22;53791;50.696;4.396;2023-07-20T01:53:05;15.80;99.90
23100;DHT22;53791;50.696;4.396;2023-07-20T01:55:32;15.80;99.90
23100;DHT22;53791;50.696;4.396;2023-07-20T01:58:00;15.80;99.90
23100;DHT22;53791;50.696;4.396;2023-07-20T02:00:28;15.90;99.90
23100;DHT22;53791;50.696;4.396;2023-07-20T02:02:55;16.00;99.90
23100;DHT22;53791;50.696;4.396;2023-07-20T02:05:23;16.00;99.90
23100;DHT22;53791;50.696;4.396;2023-07-20T02:07:51;16.00;99.90
23100;DHT22;53791;50.696;4.396;2023-07-20T02:10:18;15.90;99.90
23100;DHT22;53791;50.696;4.396;2023-07-20T02:12:46;15.90;99.90
23100;DHT22;53791;50.696;4.396;2023-07-20T02:15:15;15.90;99.90
23100;DHT22;53791;50.696;4.396;2023-07-20T02:17:43;16.00;99.90
23100;DHT22;53791;50.696;4.396;2023-07-20T02:20:11;16.00;99.90
23100;DHT22;53791;50.696;4.396;2023-07-20T02:22:39;16.00;99.90
23100;DHT22;53791;50.696;4.396;2023-07-20T02:25:07;16.00;99.90
23100;DHT22;53791;50.696;4.396;2023-07-20T02:27:35;16.00;99.90
23100;DHT22;53791;50.696;4.396;2023-07-20T02:30:03;16.00;99.90
23100;DHT22;53791;50.696;4.396;2023-07-20T02:32:31;16.00;99.90
23100;DHT22;53791;50.696;4.396;2023-07-20T02:34:58;16.00;99.90
23100;DHT22;53791;50.696;4.396;2023-07-20T02:37:26;16.00;99.90
23100;DHT22;53791;50.696;4.396;2023-07-20T02:39:53;16.00;99.90
23100;DHT22;53791;50.696;4.396;2023-07-20T02:42:21;16.10;99.90
23100;DHT22;53791;50.696;4.396;2023-07-20T02:44:50;16.00;99.90
23100;DHT22;53791;50.696;4.396;2023-07-20T02:47:18;16.00;99.90
23100;DHT22;53791;50.696;4.396;2023-07-20T02:49:45;16.00;99.90
23100;DHT22;53791;50.696;4.396;2023-07-20T02:52:13;16.10;99.90
23100;DHT22;53791;50.696;4.396;2023-07-20T02:54:40;16.00;99.90
23100;DHT22;53791;50.696;4.396;2023-07-20T02:57:08;16.10;99.90
23100;DHT22;53791;50.696;4.396;2023-07-20T02:59:35;16.10;99.90
23100;DHT22;53791;50.696;4.396;2023-07-20T03:02:03;16.10;99.90
23100;DHT22;53791;50.696;4.396;2023-07-20T03:04:30;16.00;99.90
23100;DHT22;53791;50.696;4.396;2023-07-20T03:06:58;16.00;99.90
23100;DHT22;53791;50.696;4.396;2023-07-20T03:09:26;16.10;99.90
23100;DHT22;53791;50.696;4.396;2023-07-20T03:11:53;16.00;99.90
23100;DHT22;53791;50.696;4.396;2023-07-20T03:14:21;16.00;99.90
23100;DHT22;53791;50.696;4.396;2023-07-20T03:16:50;16.10;99.90
23100;DHT22;53791;50.696;4.396;2023-07-20T03:19:17;16.10;99.90
23100;DHT22;53791;50.696;4.396;2023-07-20T03:21:45;16.00;99.90
23100;DHT22;53791;50.696;4.396;2023-07-20T03:24:12;16.00;99.90
23100;DHT22;53791;50.696;4.396;2023-07-20T03:26:40;16.00;99.90
23100;DHT22;53791;50.696;4.396;2023-07-20T03:29:07;16.00;99.90
23100;DHT22;53791;50.696;4.396;2023-07-20T03:31:35;16.10;99.90
23100;DHT22;53791;50.696;4.396;2023-07-20T03:34:02;16.10;99.90
23100;DHT22;53791;50.696;4.396;2023-07-20T03:36:31;16.10;99.90
23100;DHT22;53791;50.696;4.396;2023-07-20T03:38:59;16.10;99.90
23100;DHT22;53791;50.696;4.396;2023-07-20T03:41:26;16.20;99.90
23100;DHT22;53791;50.696;4.396;2023-07-20T03:43:54;16.20;99.90
23100;DHT22;53791;50.696;4.396;2023-07-20T03:46:21;16.20;99.90
23100;DHT22;53791;50.696;4.396;2023-07-20T03:48:49;16.20;99.90
23100;DHT22;53791;50.696;4.396;2023-07-20T03:51:16;16.10;99.90
23100;DHT22;53791;50.696;4.396;2023-07-20T03:53:44;16.10;99.90
23100;DHT22;53791;50.696;4.396;2023-07-20T03:56:11;16.10;99.90
23100;DHT22;53791;50.696;4.396;2023-07-20T03:58:39;16.20;99.90
23100;DHT22;53791;50.696;4.396;2023-07-20T04:01:07;16.20;99.90
23100;DHT22;53791;50.696;4.396;2023-07-20T04:03:36;16.20;99.90
23100;DHT22;53791;50.696;4.396;2023-07-20T04:06:03;16.10;99.90
23100;DHT22;53791;50.696;4.396;2023-07-20T04:08:31;16.20;99.90
23100;DHT22;53791;50.696;4.396;2023-07-20T04:11:03;16.20;99.90
23100;DHT22;53791;50.696;4.396;2023-07-20T04:13:30;16.20;99.90
23100;DHT22;53791;50.696;4.396;2023-07-20T04:15:59;16.20;99.90
23100;DHT22;53791;50.696;4.396;2023-07-20T04:18:27;16.30;99.90
23100;DHT22;53791;50.696;4.396;2023-07-20T04:20:54;16.20;99.90
23100;DHT22;53791;50.696;4.396;2023-07-20T04:23:22;16.30;99.90
23100;DHT22;53791;50.696;4.396;2023-07-20T04:25:50;16.30;99.90
23100;DHT22;53791;50.696;4.396;2023-07-20T04:28:18;16.30;99.90
23100;DHT22;53791;50.696;4.396;2023-07-20T04:30:48;16.30;99.90
23100;DHT22;53791;50.696;4.396;2023-07-20T04:33:17;16.20;99.90
23100;DHT22;53791;50.696;4.396;2023-07-20T04:35:54;16.20;99.90
23100;DHT22;53791;50.696;4.396;2023-07-20T04:38:28;16.20;99.90
23100;DHT22;53791;50.696;4.396;2023-07-20T04:40:58;16.10;99.90
23100;DHT22;53791;50.696;4.396;2023-07-20T04:43:26;16.10;99.90
23100;DHT22;53791;50.696;4.396;2023-07-20T04:45:54;16.10;99.90
23100;DHT22;53791;50.696;4.396;2023-07-20T04:48:21;16.10;99.90
23100;DHT22;53791;50.696;4.396;2023-07-20T04:50:49;16.20;99.90
23100;DHT22;53791;50.696;4.396;2023-07-20T04:53:16;16.30;99.90
23100;DHT22;53791;50.696;4.396;2023-07-20T04:55:50;16.30;99.90
23100;DHT22;53791;50.696;4.396;2023-07-20T04:58:19;16.30;99.90
23100;DHT22;53791;50.696;4.396;2023-07-20T05:00:48;16.30;99.90
23100;DHT22;53791;50.696;4.396;2023-07-20T05:03:16;16.30;99.90
23100;DHT22;53791;50.696;4.396;2023-07-20T05:05:43;16.30;99.90
23100;DHT22;53791;50.696;4.396;2023-07-20T05:08:11;16.40;99.90
23100;DHT22;53791;50.696;4.396;2023-07-20T05:10:38;16.40;99.90
23100;DHT22;53791;50.696;4.396;2023-07-20T05:13:06;16.50;99.90
23100;DHT22;53791;50.696;4.396;2023-07-20T05:15:34;16.50;99.90
23100;DHT22;53791;50.696;4.396;2023-07-20T05:18:02;16.60;99.90
23100;DHT22;53791;50.696;4.396;2023-07-20T05:20:29;16.50;99.90
23100;DHT22;53791;50.696;4.396;2023-07-20T05:22:58;16.50;99.90
23100;DHT22;53791;50.696;4.396;2023-07-20T05:25:25;16.60;99.90
23100;DHT22;53791;50.696;4.396;2023-07-20T05:27:53;16.60;99.90
23100;DHT22;53791;50.696;4.396;2023-07-20T05:30:22;16.60;99.90
23100;DHT22;53791;50.696;4.396;2023-07-20T05:32:51;16.60;99.90
23100;DHT22;53791;50.696;4.396;2023-07-20T05:35:21;16.70;99.90
23100;DHT22;53791;50.696;4.396;2023-07-20T05:37:49;16.70;99.90
23100;DHT22;53791;50.696;4.396;2023-07-20T05:40:16;16.60;99.90
23100;DHT22;53791;50.696;4.396;2023-07-20T05:42:48;16.70;99.90
23100;DHT22;53791;50.696;4.396;2023-07-20T05:45:17;16.70;99.90
23100;DHT22;53791;50.696;4.396;2023-07-20T05:47:45;16.70;99.90
23100;DHT22;53791;50.696;4.396;2023-07-20T05:50:13;16.70;99.90
23100;DHT22;53791;50.696;4.396;2023-07-20T05:52:40;16.70;99.90
23100;DHT22;53791;50.696;4.396;2023-07-20T05:55:08;16.80;99.90
23100;DHT22;53791;50.696;4.396;2023-07-20T05:57:36;16.80;99.90
23100;DHT22;53791;50.696;4.396;2023-07-20T06:00:06;16.80;99.90
23100;DHT22;53791;50.696;4.396;2023-07-20T06:02:34;16.90;99.90
23100;DHT22;53791;50.696;4.396;2023-07-20T06:05:01;17.00;99.90
23100;DHT22;53791;50.696;4.396;2023-07-20T06:07:29;17.00;99.90
23100;DHT22;53791;50.696;4.396;2023-07-20T06:09:56;17.10;99.90
23100;DHT22;53791;50.696;4.396;2023-07-20T06:12:24;17.10;99.90
23100;DHT22;53791;50.696;4.396;2023-07-20T06:14:52;17.10;99.90
23100;DHT22;53791;50.696;4.396;2023-07-20T06:17:20;17.10;99.90
23100;DHT22;53791;50.696;4.396;2023-07-20T06:19:47;17.10;99.90
23100;DHT22;53791;50.696;4.396;2023-07-20T06:22:15;17.20;99.90
23100;DHT22;53791;50.696;4.396;2023-07-20T06:24:42;17.20;99.90
23100;DHT22;53791;50.696;4.396;2023-07-20T06:27:11;17.30;99.90
23100;DHT22;53791;50.696;4.396;2023-07-20T06:29:39;17.20;99.90
23100;DHT22;53791;50.696;4.396;2023-07-20T06:32:07;17.20;99.90
23100;DHT22;53791;50.696;4.396;2023-07-20T06:34:35;17.30;99.90
23100;DHT22;53791;50.696;4.396;2023-07-20T06:37:04;17.30;99.90
23100;DHT22;53791;50.696;4.396;2023-07-20T06:39:32;17.30;99.90
23100;DHT22;53791;50.696;4.396;2023-07-20T06:41:59;17.50;99.90
23100;DHT22;53791;50.696;4.396;2023-07-20T06:44:27;17.50;99.90
23100;DHT22;53791;50.696;4.396;2023-07-20T06:46:54;17.50;99.90
23100;DHT22;53791;50.696;4.396;2023-07-20T06:49:26;17.60;99.90
23100;DHT22;53791;50.696;4.396;2023-07-20T06:51:54;17.70;99.90
23100;DHT22;53791;50.696;4.396;2023-07-20T06:54:22;17.60;99.90
23100;DHT22;53791;50.696;4.396;2023-07-20T06:56:49;17.70;99.90
23100;DHT22;53791;50.696;4.396;2023-07-20T06:59:17;17.60;99.90
23100;DHT22;53791;50.696;4.396;2023-07-20T07:01:44;17.70;99.90
23100;DHT22;53791;50.696;4.396;2023-07-20T07:04:12;17.70;99.90
23100;DHT22;53791;50.696;4.396;2023-07-20T07:06:39;17.80;99.90
23100;DHT22;53791;50.696;4.396;2023-07-20T07:09:07;17.60;99.90
23100;DHT22;53791;50.696;4.396;2023-07-20T07:11:35;17.80;99.90
23100;DHT22;53791;50.696;4.396;2023-07-20T07:14:02;17.90;99.90
23100;DHT22;53791;50.696;4.396;2023-07-20T07:16:30;18.00;99.90
23100;DHT22;53791;50.696;4.396;2023-07-20T07:18:57;18.10;99.90
23100;DHT22;53791;50.696;4.396;2023-07-20T07:21:26;18.10;99.90
23100;DHT22;53791;50.696;4.396;2023-07-20T07:23:53;18.20;99.90
23100;DHT22;53791;50.696;4.396;2023-07-20T07:26:22;18.30;99.90
23100;DHT22;53791;50.696;4.396;2023-07-20T07:28:50;18.40;99.90
23100;DHT22;53791;50.696;4.396;2023-07-20T07:31:18;18.60;99.90
23100;DHT22;53791;50.696;4.396;2023-07-20T07:33:46;18.60;99.90
23100;DHT22;53791;50.696;4.396;2023-07-20T07:36:13;18.80;99.90
23100;DHT22;53791;50.696;4.396;2023-07-20T07:38:41;18.80;99.90
23100;DHT22;53791;50.696;4.396;2023-07-20T07:41:09;18.80;99.90
23100;DHT22;53791;50.696;4.396;2023-07-20T07:43:36;18.80;99.90
23100;DHT22;53791;50.696;4.396;2023-07-20T07:46:07;18.90;99.90
23100;DHT22;53791;50.696;4.396;2023-07-20T07:48:34;18.90;99.90
23100;DHT22;53791;50.696;4.396;2023-07-20T07:51:02;18.90;99.90
23100;DHT22;53791;50.696;4.396;2023-07-20T07:53:29;19.00;99.90
23100;DHT22;53791;50.696;4.396;2023-07-20T07:55:57;19.10;99.90
23100;DHT22;53791;50.696;4.396;2023-07-20T07:58:24;19.30;99.90
23100;DHT22;53791;50.696;4.396;2023-07-20T08:00:52;19.40;99.90
23100;DHT22;53791;50.696;4.396;2023-07-20T08:03:20;19.40;99.90
23100;DHT22;53791;50.696;4.396;2023-07-20T08:05:48;19.50;99.90
23100;DHT22;53791;50.696;4.396;2023-07-20T08:08:15;19.50;99.90
23100;DHT22;53791;50.696;4.396;2023-07-20T08:10:43;19.40;99.90
23100;DHT22;53791;50.696;4.396;2023-07-20T08:13:10;19.50;99.90
23100;DHT22;53791;50.696;4.396;2023-07-20T08:15:38;19.60;99.90
23100;DHT22;53791;50.696;4.396;2023-07-20T08:18:06;19.70;99.90
23100;DHT22;53791;50.696;4.396;2023-07-20T08:20:34;19.80;99.90
23100;DHT22;53791;50.696;4.396;2023-07-20T08:23:02;20.20;99.90
23100;DHT22;53791;50.696;4.396;2023-07-20T08:25:29;20.30;99.90
23100;DHT22;53791;50.696;4.396;2023-07-20T08:27:57;20.50;99.90
23100;DHT22;53791;50.696;4.396;2023-07-20T08:30:26;20.70;99.90
23100;DHT22;53791;50.696;4.396;2023-07-20T08:32:54;20.40;99.90
23100;DHT22;53791;50.696;4.396;2023-07-20T08:35:21;20.30;99.90
23100;DHT22;53791;50.696;4.396;2023-07-20T08:37:49;19.80;99.90
23100;DHT22;53791;50.696;4.396;2023-07-20T08:40:16;20.00;99.90
23100;DHT22;53791;50.696;4.396;2023-07-20T08:42:44;20.20;99.90
23100;DHT22;53791;50.696;4.396;2023-07-20T08:45:29;20.40;99.90
23100;DHT22;53791;50.696;4.396;2023-07-20T08:48:00;20.60;99.90
23100;DHT22;53791;50.696;4.396;2023-07-20T08:50:31;20.90;99.90
23100;DHT22;53791;50.696;4.396;2023-07-20T08:52:59;21.00;99.90
23100;DHT22;53791;50.696;4.396;2023-07-20T08:55:27;21.40;99.90
23100;DHT22;53791;50.696;4.396;2023-07-20T08:57:56;21.60;99.90
23100;DHT22;53791;50.696;4.396;2023-07-20T09:00:25;21.80;99.90
23100;DHT22;53791;50.696;4.396;2023-07-20T09:02:54;21.80;99.90
23100;DHT22;53791;50.696;4.396;2023-07-20T09:05:23;21.70;99.90
23100;DHT22;53791;50.696;4.396;2023-07-20T09:07:54;21.60;99.90
23100;DHT22;53791;50.696;4.396;2023-07-20T09:10:23;21.50;99.90
23100;DHT22;53791;50.696;4.396;2023-07-20T09:12:51;21.50;99.90
23100;DHT22;53791;50.696;4.396;2023-07-20T09:15:19;21.70;99.90
23100;DHT22;53791;50.696;4.396;2023-07-20T09:17:48;21.90;99.90
23100;DHT22;53791;50.696;4.396;2023-07-20T09:20:17;22.00;99.90
23100;DHT22;53791;50.696;4.396;2023-07-20T09:22:45;22.20;99.90
23100;DHT22;53791;50.696;4.396;2023-07-20T09:25:17;22.30;99.90
23100;DHT22;53791;50.696;4.396;2023-07-20T09:27:48;22.20;99.90
23100;DHT22;53791;50.696;4.396;2023-07-20T09:30:16;22.20;99.90
23100;DHT22;53791;50.696;4.396;2023-07-20T09:32:45;22.00;99.90
23100;DHT22;53791;50.696;4.396;2023-07-20T09:35:15;21.40;99.90
23100;DHT22;53791;50.696;4.396;2023-07-20T09:38:01;21.40;99.90
23100;DHT22;53791;50.696;4.396;2023-07-20T09:40:29;21.50;99.90
23100;DHT22;53791;50.696;4.396;2023-07-20T09:42:56;21.60;99.90
23100;DHT22;53791;50.696;4.396;2023-07-20T09:45:34;21.50;99.90
23100;DHT22;53791;50.696;4.396;2023-07-20T09:48:06;21.50;99.90
23100;DHT22;53791;50.696;4.396;2023-07-20T09:50:34;21.60;99.90
23100;DHT22;53791;50.696;4.396;2023-07-20T09:53:03;21.60;99.90
23100;DHT22;53791;50.696;4.396;2023-07-20T09:55:31;21.60;99.90
23100;DHT22;53791;50.696;4.396;2023-07-20T09:57:58;21.80;99.90
23100;DHT22;53791;50.696;4.396;2023-07-20T10:00:26;21.90;99.90
23100;DHT22;53791;50.696;4.396;2023-07-20T10:02:54;22.20;99.90
23100;DHT22;53791;50.696;4.396;2023-07-20T10:05:23;22.40;99.90
23100;DHT22;53791;50.696;4.396;2023-07-20T10:07:52;22.40;99.90
23100;DHT22;53791;50.696;4.396;2023-07-20T10:10:21;22.50;99.90
23100;DHT22;53791;50.696;4.396;2023-07-20T10:12:49;22.60;99.90
23100;DHT22;53791;50.696;4.396;2023-07-20T10:15:36;22.60;99.90
23100;DHT22;53791;50.696;4.396;2023-07-20T10:18:22;22.60;99.90
23100;DHT22;53791;50.696;4.396;2023-07-20T10:20:51;22.40;99.90
23100;DHT22;53791;50.696;4.396;2023-07-20T10:23:22;22.50;99.90
23100;DHT22;53791;50.696;4.396;2023-07-20T10:25:50;22.10;99.90
23100;DHT22;53791;50.696;4.396;2023-07-20T10:28:18;22.10;99.90
23100;DHT22;53791;50.696;4.396;2023-07-20T10:30:46;22.10;99.90
23100;DHT22;53791;50.696;4.396;2023-07-20T10:33:13;22.30;99.90
23100;DHT22;53791;50.696;4.396;2023-07-20T10:36:01;22.50;99.90
23100;DHT22;53791;50.696;4.396;2023-07-20T10:38:52;22.60;99.90
23100;DHT22;53791;50.696;4.396;2023-07-20T10:41:22;22.60;99.90
23100;DHT22;53791;50.696;4.396;2023-07-20T10:44:04;22.50;99.90
23100;DHT22;53791;50.696;4.396;2023-07-20T10:46:43;22.60;99.90
23100;DHT22;53791;50.696;4.396;2023-07-20T10:49:14;22.80;99.90
23100;DHT22;53791;50.696;4.396;2023-07-20T10:51:48;23.10;99.90
23100;DHT22;53791;50.696;4.396;2023-07-20T10:56:49;23.30;99.90
23100;DHT22;53791;50.696;4.396;2023-07-20T11:01:56;23.60;99.90
23100;DHT22;53791;50.696;4.396;2023-07-20T11:04:41;23.50;99.90
23100;DHT22;53791;50.696;4.396;2023-07-20T11:07:09;23.20;99.90
23100;DHT22;53791;50.696;4.396;2023-07-20T11:09:38;23.20;99.90
23100;DHT22;53791;50.696;4.396;2023-07-20T11:12:12;23.20;99.90
23100;DHT22;53791;50.696;4.396;2023-07-20T11:14:53;23.40;99.90
23100;DHT22;53791;50.696;4.396;2023-07-20T11:17:14;23.60;99.90
23100;DHT22;53791;50.696;4.396;2023-07-20T11:19:42;23.60;99.90
23100;DHT22;53791;50.696;4.396;2023-07-20T11:22:10;23.50;99.90
23100;DHT22;53791;50.696;4.396;2023-07-20T11:24:39;23.60;99.90
23100;DHT22;53791;50.696;4.396;2023-07-20T11:27:07;23.80;99.90
23100;DHT22;53791;50.696;4.396;2023-07-20T11:29:35;23.80;99.90
23100;DHT22;53791;50.696;4.396;2023-07-20T11:32:03;23.50;99.90
23100;DHT22;53791;50.696;4.396;2023-07-20T11:34:32;23.30;99.90
23100;DHT22;53791;50.696;4.396;2023-07-20T11:37:00;23.10;99.90
23100;DHT22;53791;50.696;4.396;2023-07-20T11:39:30;23.00;99.90
23100;DHT22;53791;50.696;4.396;2023-07-20T11:41:58;23.00;99.90
23100;DHT22;53791;50.696;4.396;2023-07-20T11:44:28;23.00;99.90
23100;DHT22;53791;50.696;4.396;2023-07-20T11:47:06;23.00;99.90
23100;DHT22;53791;50.696;4.396;2023-07-20T11:49:37;22.60;99.90
23100;DHT22;53791;50.696;4.396;2023-07-20T11:52:07;22.60;99.90
23100;DHT22;53791;50.696;4.396;2023-07-20T11:54:37;22.70;99.90
23100;DHT22;53791;50.696;4.396;2023-07-20T11:57:05;22.60;99.90
23100;DHT22;53791;50.696;4.396;2023-07-20T11:59:33;22.60;99.90
23100;DHT22;53791;50.696;4.396;2023-07-20T12:02:03;22.70;99.90
23100;DHT22;53791;50.696;4.396;2023-07-20T12:04:34;23.10;99.90
23100;DHT22;53791;50.696;4.396;2023-07-20T12:07:12;23.50;99.90
23100;DHT22;53791;50.696;4.396;2023-07-20T12:09:39;23.80;99.90
23100;DHT22;53791;50.696;4.396;2023-07-20T12:12:10;23.90;99.90
23100;DHT22;53791;50.696;4.396;2023-07-20T12:14:39;24.10;99.90
23100;DHT22;53791;50.696;4.396;2023-07-20T12:17:08;23.80;99.90
23100;DHT22;53791;50.696;4.396;2023-07-20T12:19:38;23.80;99.90
23100;DHT22;53791;50.696;4.396;2023-07-20T12:22:07;23.80;99.90
23100;DHT22;53791;50.696;4.396;2023-07-20T12:24:35;23.70;99.90
23100;DHT22;53791;50.696;4.396;2023-07-20T12:27:04;23.60;99.90
23100;DHT22;53791;50.696;4.396;2023-07-20T12:29:31;23.30;99.90
23100;DHT22;53791;50.696;4.396;2023-07-20T12:32:00;23.20;99.90
23100;DHT22;53791;50.696;4.396;2023-07-20T12:34:28;23.20;99.90
23100;DHT22;53791;50.696;4.396;2023-07-20T12:36:55;23.50;99.90
23100;DHT22;53791;50.696;4.396;2023-07-20T12:39:23;23.50;99.90
23100;DHT22;53791;50.696;4.396;2023-07-20T12:41:51;23.60;99.90
23100;DHT22;53791;50.696;4.396;2023-07-20T12:44:18;23.70;99.90
23100;DHT22;53791;50.696;4.396;2023-07-20T12:46:46;23.80;99.90
23100;DHT22;53791;50.696;4.396;2023-07-20T12:49:13;23.70;99.90
23100;DHT22;53791;50.696;4.396;2023-07-20T12:51:41;23.70;99.90
23100;DHT22;53791;50.696;4.396;2023-07-20T12:54:08;23.50;99.90
23100;DHT22;53791;50.696;4.396;2023-07-20T12:56:36;23.50;99.90
23100;DHT22;53791;50.696;4.396;2023-07-20T12:59:03;23.60;99.90
23100;DHT22;53791;50.696;4.396;2023-07-20T13:01:32;23.80;99.90
23100;DHT22;53791;50.696;4.396;2023-07-20T13:03:59;23.70;99.90
23100;DHT22;53791;50.696;4.396;2023-07-20T13:06:27;23.80;99.90
23100;DHT22;53791;50.696;4.396;2023-07-20T13:08:54;23.70;99.90
23100;DHT22;53791;50.696;4.396;2023-07-20T13:11:23;23.70;99.90
23100;DHT22;53791;50.696;4.396;2023-07-20T13:13:50;23.80;99.90
23100;DHT22;53791;50.696;4.396;2023-07-20T13:16:18;23.80;99.90
23100;DHT22;53791;50.696;4.396;2023-07-20T13:18:45;23.70;99.90
23100;DHT22;53791;50.696;4.396;2023-07-20T13:21:13;23.80;99.90
23100;DHT22;53791;50.696;4.396;2023-07-20T13:23:41;23.70;99.90
23100;DHT22;53791;50.696;4.396;2023-07-20T13:26:08;23.80;99.90
23100;DHT22;53791;50.696;4.396;2023-07-20T13:28:36;23.80;99.90
23100;DHT22;53791;50.696;4.396;2023-07-20T13:31:03;23.80;99.90
23100;DHT22;53791;50.696;4.396;2023-07-20T13:33:31;23.50;99.90
23100;DHT22;53791;50.696;4.396;2023-07-20T13:35:59;23.30;99.90
23100;DHT22;53791;50.696;4.396;2023-07-20T13:38:26;23.30;99.90
23100;DHT22;53791;50.696;4.396;2023-07-20T13:40:54;23.20;99.90
23100;DHT22;53791;50.696;4.396;2023-07-20T13:43:22;23.20;99.90
23100;DHT22;53791;50.696;4.396;2023-07-20T13:46:03;23.00;99.90
23100;DHT22;53791;50.696;4.396;2023-07-20T13:48:31;23.00;99.90
23100;DHT22;53791;50.696;4.396;2023-07-20T13:50:59;22.80;99.90
23100;DHT22;53791;50.696;4.396;2023-07-20T13:53:26;22.70;99.90
23100;DHT22;53791;50.696;4.396;2023-07-20T13:55:54;22.60;99.90
23100;DHT22;53791;50.696;4.396;2023-07-20T13:58:23;22.60;99.90
23100;DHT22;53791;50.696;4.396;2023-07-20T14:00:51;22.60;99.90
23100;DHT22;53791;50.696;4.396;2023-07-20T14:03:20;22.70;99.90
23100;DHT22;53791;50.696;4.396;2023-07-20T14:05:48;22.70;99.90
23100;DHT22;53791;50.696;4.396;2023-07-20T14:08:15;22.70;99.90
23100;DHT22;53791;50.696;4.396;2023-07-20T14:10:43;22.70;99.90
23100;DHT22;53791;50.696;4.396;2023-07-20T14:13:10;22.90;99.90
23100;DHT22;53791;50.696;4.396;2023-07-20T14:15:39;23.00;99.90
23100;DHT22;53791;50.696;4.396;2023-07-20T14:18:06;23.20;99.90
23100;DHT22;53791;50.696;4.396;2023-07-20T14:20:34;23.20;99.90
23100;DHT22;53791;50.696;4.396;2023-07-20T14:23:01;23.10;99.90
23100;DHT22;53791;50.696;4.396;2023-07-20T14:25:29;23.20;99.90
23100;DHT22;53791;50.696;4.396;2023-07-20T14:27:57;23.20;99.90
23100;DHT22;53791;50.696;4.396;2023-07-20T14:30:24;23.00;99.90
23100;DHT22;53791;50.696;4.396;2023-07-20T14:32:53;23.10;99.90
23100;DHT22;53791;50.696;4.396;2023-07-20T14:35:20;23.40;99.90
23100;DHT22;53791;50.696;4.396;2023-07-20T14:37:48;23.60;99.90
23100;DHT22;53791;50.696;4.396;2023-07-20T14:40:16;23.80;99.90
23100;DHT22;53791;50.696;4.396;2023-07-20T14:42:44;23.90;99.90
23100;DHT22;53791;50.696;4.396;2023-07-20T14:45:11;23.90;99.90
23100;DHT22;53791;50.696;4.396;2023-07-20T14:47:39;23.80;99.90
23100;DHT22;53791;50.696;4.396;2023-07-20T14:50:07;23.70;99.90
23100;DHT22;53791;50.696;4.396;2023-07-20T14:52:34;23.60;99.90
23100;DHT22;53791;50.696;4.396;2023-07-20T14:55:02;23.40;99.90
23100;DHT22;53791;50.696;4.396;2023-07-20T14:57:29;23.30;99.90
23100;DHT22;53791;50.696;4.396;2023-07-20T15:00:03;23.30;99.90
23100;DHT22;53791;50.696;4.396;2023-07-20T15:02:47;23.20;99.90
23100;DHT22;53791;50.696;4.396;2023-07-20T15:05:22;23.10;99.90
23100;DHT22;53791;50.696;4.396;2023-07-20T15:07:53;23.10;99.90
23100;DHT22;53791;50.696;4.396;2023-07-20T15:10:21;23.10;99.90
23100;DHT22;53791;50.696;4.396;2023-07-20T15:12:48;23.10;99.90
23100;DHT22;53791;50.696;4.396;2023-07-20T15:15:16;23.00;99.90
23100;DHT22;53791;50.696;4.396;2023-07-20T15:17:44;22.90;99.90
23100;DHT22;53791;50.696;4.396;2023-07-20T15:20:13;22.80;99.90
23100;DHT22;53791;50.696;4.396;2023-07-20T15:22:41;22.80;99.90
23100;DHT22;53791;50.696;4.396;2023-07-20T15:25:09;22.70;99.90
23100;DHT22;53791;50.696;4.396;2023-07-20T15:27:40;22.60;99.90
23100;DHT22;53791;50.696;4.396;2023-07-20T15:30:11;22.50;99.90
23100;DHT22;53791;50.696;4.396;2023-07-20T15:32:39;22.30;99.90
23100;DHT22;53791;50.696;4.396;2023-07-20T15:35:10;22.20;99.90
23100;DHT22;53791;50.696;4.396;2023-07-20T15:37:37;22.10;99.90
23100;DHT22;53791;50.696;4.396;2023-07-20T15:40:06;22.00;99.90
23100;DHT22;53791;50.696;4.396;2023-07-20T15:42:34;22.00;99.90
23100;DHT22;53791;50.696;4.396;2023-07-20T15:45:01;21.90;99.90
23100;DHT22;53791;50.696;4.396;2023-07-20T15:47:29;21.80;99.90
23100;DHT22;53791;50.696;4.396;2023-07-20T15:49:56;21.90;99.90
23100;DHT22;53791;50.696;4.396;2023-07-20T15:52:24;21.80;99.90